Aérodrome :
LOGIN :

S'inscrire | Disclaimer

   EN    FR    IT 

 










Légende :    VFR   VFR Marginal   IFR   IFR Intensif   IFR Très Intensif
Visi : 
Plafond : 
>= 8 km
>= 3000ft
5 à 8 km
1000 à 3000 ft
1500m à 5 km
500 à 1000 ft
800 à 1500m
200 à 500 ft
< 800m
< 200 ft
Symboles :   Orages  Brouillard  Fortes neiges  Fortes précipitations  Vent > 20 kt
SIGMETs :   Divers  Orages  Givrage  Turbulence  Onde Orograph.  Cendres Volcan.






- Altitude de l'aérodrome : 335 ft
- Code IATA : BEG


LYBE - Belgrade Nikola Tesla

DERNIER METAR :
  • 250000Z 14006KT CAVOK 04/M04 Q1018 NOSIG

METARs EXPIRÉS :
  • 242330Z 13008KT CAVOK 03/M04 Q1018 NOSIG
  • 242300Z 13007KT CAVOK 02/M04 Q1018 NOSIG
  • 242230Z 15008KT CAVOK 04/M04 Q1019 NOSIG
  • 242200Z 14007KT CAVOK 04/M04 Q1019 NOSIG
  • 242130Z 13007KT CAVOK 01/M04 Q1019 NOSIG

TAF TAF LYBE
Valide du 25 à 00h jusqu'au 26 à 00h UTC


242300Z 2500/2524 14009KT CAVOK TX18/2512Z TN04/2500Z



MET'MAP, la Météo Aéronautique d'un coup d'oeil ! - Copyright ORBIFLY Décembre 2007 - Disclaimer

ORBIFLY MET'MAP TEAM :

Programmation & Développement : Alexandra Zaïnal
Sur une idée originale de : Baudouin d'Aumeries
Assistance à la programmation : Marc-Olivier Méhu
Soutien technique & logistique : Manuel Goepfert

Contact : metmap@orbifly.com




SOURCES & CREDITS :

   NOAA